createdAt,value
2022-08-15T00:02:34.771Z,100.00
2022-08-15T00:07:49.475Z,100.00
2022-08-15T00:13:18.557Z,100.00
2022-08-15T00:18:41.793Z,100.00
2022-08-15T00:24:20.707Z,100.00
2022-08-15T00:29:49.785Z,100.00
2022-08-15T00:35:12.186Z,100.00
2022-08-15T00:40:34.613Z,100.00
2022-08-15T00:45:56.869Z,100.00
2022-08-15T00:51:29.722Z,100.00
2022-08-15T00:57:00.137Z,100.00
2022-08-15T01:02:46.411Z,100.00
2022-08-15T01:08:08.339Z,100.00
2022-08-15T01:14:02.459Z,100.00
2022-08-15T01:19:29.646Z,100.00
2022-08-15T01:25:26.319Z,100.00
2022-08-15T01:31:02.697Z,100.00
2022-08-15T01:36:32.102Z,100.00
2022-08-15T01:42:01.579Z,100.00
2022-08-15T01:47:46.637Z,100.00
2022-08-15T01:53:26.653Z,100.00
2022-08-15T01:58:56.794Z,100.00
2022-08-15T02:04:25.742Z,100.00
2022-08-15T02:09:51.689Z,100.00
2022-08-15T02:15:17.347Z,100.00
2022-08-15T02:20:39.946Z,100.00
2022-08-15T02:26:10.106Z,100.00
2022-08-15T02:31:34.469Z,100.00
2022-08-15T02:36:56.664Z,100.00
2022-08-15T02:42:18.967Z,100.00
2022-08-15T02:47:44.259Z,100.00
2022-08-15T02:53:13.855Z,100.00
2022-08-15T02:58:41.645Z,100.00
2022-08-15T03:04:28.546Z,100.00
2022-08-15T03:09:56.642Z,100.00
2022-08-15T03:15:18.875Z,100.00
2022-08-15T03:20:44.799Z,100.00
2022-08-15T03:26:25.521Z,100.00
2022-08-15T03:31:51.324Z,100.00
2022-08-15T03:37:13.138Z,100.00
2022-08-15T03:42:38.944Z,100.00
2022-08-15T03:48:02.117Z,100.00
2022-08-15T03:53:24.412Z,100.00
2022-08-15T03:58:50.684Z,100.00
2022-08-15T04:04:18.371Z,100.00
2022-08-15T04:09:43.570Z,100.00
2022-08-15T04:15:09.756Z,100.00
2022-08-15T04:20:38.515Z,100.00
2022-08-15T04:26:08.067Z,100.00
2022-08-15T04:31:32.858Z,97.21
2022-08-15T04:36:58.088Z,92.50
2022-08-15T04:42:24.302Z,86.02
2022-08-15T04:47:47.778Z,85.97
2022-08-15T04:53:09.830Z,89.51
2022-08-15T04:58:42.827Z,89.77
2022-08-15T05:04:24.102Z,88.84
2022-08-15T05:09:58.890Z,84.18
2022-08-15T05:15:23.248Z,72.21
2022-08-15T05:20:45.161Z,57.93
2022-08-15T05:26:53.140Z,54.02
2022-08-15T05:31:51.158Z,66.50
2022-08-15T05:37:14.679Z,70.11
2022-08-15T05:43:02.100Z,76.66
2022-08-15T05:48:34.036Z,75.66
2022-08-15T05:54:26.139Z,77.96
2022-08-15T06:00:00.588Z,81.76
2022-08-15T06:05:35.756Z,56.58
2022-08-15T06:11:10.428Z,51.26
2022-08-15T06:16:46.173Z,43.29
2022-08-15T06:22:09.540Z,59.74
2022-08-15T06:27:49.900Z,64.86
2022-08-15T06:33:57.099Z,70.70
2022-08-15T06:40:06.692Z,58.42
2022-08-15T06:45:36.158Z,70.82
2022-08-15T06:51:01.836Z,72.16
2022-08-15T06:56:40.369Z,73.04
2022-08-15T07:02:50.546Z,68.32
2022-08-15T07:08:17.320Z,60.80
2022-08-15T07:14:20.766Z,61.66
2022-08-15T07:19:55.672Z,71.00
2022-08-15T07:25:25.734Z,78.66
2022-08-15T07:30:55.578Z,76.36
2022-08-15T07:36:30.303Z,76.87
2022-08-15T07:41:56.210Z,73.37
2022-08-15T07:47:24.995Z,74.25
2022-08-15T07:53:01.205Z,79.67
2022-08-15T07:58:26.581Z,80.26
2022-08-15T08:03:56.891Z,82.42
2022-08-15T08:09:44.405Z,86.34
2022-08-15T08:15:37.354Z,84.86
2022-08-15T08:21:08.354Z,82.12
2022-08-15T08:26:36.865Z,81.86
2022-08-15T08:32:29.988Z,84.46
2022-08-15T08:38:31.007Z,85.22
2022-08-15T08:44:17.808Z,86.47
2022-08-15T08:50:34.409Z,86.69
2022-08-15T08:55:53.730Z,83.10
2022-08-15T09:01:24.508Z,83.69
2022-08-15T09:06:52.623Z,80.91
2022-08-15T09:12:22.894Z,77.83
2022-08-15T09:17:59.895Z,77.87
2022-08-15T09:23:26.002Z,75.79
2022-08-15T09:29:18.657Z,72.94
2022-08-15T09:35:12.203Z,71.20
2022-08-15T09:41:12.103Z,69.52
2022-08-15T09:46:45.569Z,66.11
2022-08-15T09:52:47.508Z,68.05
2022-08-15T09:58:20.203Z,65.00
2022-08-15T10:03:48.138Z,62.18
2022-08-15T10:10:01.306Z,61.30
2022-08-15T10:15:30.285Z,64.29
2022-08-15T10:21:15.518Z,64.99
2022-08-15T10:26:37.297Z,67.43
2022-08-15T10:32:37.895Z,62.99
2022-08-15T10:37:58.965Z,61.41
2022-08-15T10:43:53.668Z,63.85
2022-08-15T10:49:31.975Z,64.26
2022-08-15T10:55:12.487Z,64.17
2022-08-15T11:00:37.355Z,66.08
2022-08-15T11:06:14.532Z,64.91
2022-08-15T11:11:44.097Z,64.74
2022-08-15T11:17:16.612Z,65.89
2022-08-15T11:22:49.295Z,64.60
2022-08-15T11:28:36.999Z,63.08
2022-08-15T11:34:37.727Z,63.20
2022-08-15T11:39:59.318Z,59.73
2022-08-15T11:45:24.015Z,61.27
2022-08-15T11:51:03.352Z,61.31
2022-08-15T11:56:56.091Z,61.86
2022-08-15T12:02:31.773Z,62.48
2022-08-15T12:07:59.114Z,63.30
2022-08-15T12:13:34.371Z,63.70
2022-08-15T12:18:57.841Z,64.02
2022-08-15T12:24:23.760Z,62.67
2022-08-15T12:29:51.073Z,63.77
2022-08-15T12:35:24.160Z,62.62
2022-08-15T12:40:57.498Z,61.45
2022-08-15T12:46:29.277Z,60.15
2022-08-15T12:51:51.298Z,58.67
2022-08-15T12:57:15.729Z,57.86
2022-08-15T13:02:47.798Z,58.24
2022-08-15T13:08:27.255Z,59.12
2022-08-15T13:13:52.917Z,60.19
2022-08-15T13:19:23.446Z,61.09
2022-08-15T13:24:47.840Z,59.67
2022-08-15T13:30:19.568Z,58.94
2022-08-15T13:35:58.814Z,59.45
2022-08-15T13:41:22.218Z,59.32
2022-08-15T13:47:08.733Z,59.56
2022-08-15T13:52:46.844Z,59.79
2022-08-15T13:58:19.836Z,59.67
2022-08-15T14:03:42.541Z,59.45
2022-08-15T14:09:18.612Z,58.11
2022-08-15T14:14:46.777Z,58.23
2022-08-15T14:20:27.298Z,58.24
2022-08-15T14:27:12.201Z,58.17
2022-08-15T14:31:31.297Z,59.13
2022-08-15T14:36:54.801Z,56.87
2022-08-15T14:42:21.683Z,56.59
2022-08-15T14:47:52.831Z,55.39
2022-08-15T14:53:14.869Z,55.05
2022-08-15T14:58:40.960Z,55.43
2022-08-15T15:04:20.839Z,55.26
2022-08-15T15:09:43.017Z,58.85
2022-08-15T15:15:06.393Z,57.97
2022-08-15T15:20:46.105Z,57.04
2022-08-15T15:26:10.636Z,54.19
2022-08-15T15:31:32.717Z,53.03
2022-08-15T15:36:56.287Z,54.45
2022-08-15T15:42:20.670Z,53.51
2022-08-15T15:47:59.990Z,53.32
2022-08-15T15:53:30.929Z,53.31
2022-08-15T15:59:02.080Z,52.76
2022-08-15T16:04:29.672Z,52.42
2022-08-15T16:09:55.001Z,52.44
2022-08-15T16:15:43.818Z,52.60
2022-08-15T16:21:17.220Z,53.46
2022-08-15T16:26:53.302Z,52.11
2022-08-15T16:32:33.420Z,52.01
2022-08-15T16:38:01.118Z,53.28
2022-08-15T16:43:53.386Z,54.94
2022-08-15T16:49:23.236Z,56.46
2022-08-15T16:55:02.079Z,58.24
2022-08-15T17:00:44.263Z,59.78
2022-08-15T17:06:23.422Z,62.45
2022-08-15T17:12:12.178Z,64.46
2022-08-15T17:18:11.567Z,65.41
2022-08-15T17:24:55.826Z,66.50
2022-08-15T17:30:54.065Z,67.45
2022-08-15T17:35:53.779Z,68.64
2022-08-15T17:41:20.769Z,69.95
2022-08-15T17:46:50.626Z,70.82
2022-08-15T17:52:18.945Z,70.91
2022-08-15T17:58:08.830Z,72.49
2022-08-15T18:03:31.806Z,72.49
2022-08-15T18:08:57.745Z,72.62
2022-08-15T18:14:39.133Z,75.71
2022-08-15T18:20:26.868Z,74.41
2022-08-15T18:25:52.129Z,75.36
2022-08-15T18:31:21.538Z,76.78
2022-08-15T18:36:51.641Z,77.27
2022-08-15T18:42:22.495Z,77.77
2022-08-15T18:47:45.100Z,79.46
2022-08-15T18:53:19.349Z,80.94
2022-08-15T18:58:43.317Z,80.99
2022-08-15T19:04:49.267Z,81.20
2022-08-15T19:09:58.709Z,81.70
2022-08-15T19:15:24.758Z,82.04
2022-08-15T19:21:00.349Z,82.33
2022-08-15T19:26:37.583Z,83.18
2022-08-15T19:32:03.132Z,84.29
2022-08-15T19:37:51.881Z,85.22
2022-08-15T19:43:38.232Z,85.05
2022-08-15T19:49:15.204Z,86.33
2022-08-15T19:55:38.367Z,86.24
2022-08-15T20:00:56.731Z,86.39
2022-08-15T20:06:39.344Z,87.65
2022-08-15T20:12:19.272Z,87.31
2022-08-15T20:18:29.603Z,88.01
2022-08-15T20:24:07.726Z,90.07
2022-08-15T20:29:53.403Z,90.24
2022-08-15T20:35:24.493Z,90.89
2022-08-15T20:41:10.842Z,90.93
2022-08-15T20:46:45.242Z,90.43
2022-08-15T20:52:39.562Z,92.42
2022-08-15T20:57:51.986Z,92.73
2022-08-15T21:04:02.153Z,92.41
2022-08-15T21:09:16.726Z,91.88
2022-08-15T21:15:09.673Z,92.62
2022-08-15T21:20:35.583Z,92.41
2022-08-15T21:25:58.328Z,93.58
2022-08-15T21:31:38.336Z,93.15
2022-08-15T21:37:33.917Z,95.32
2022-08-15T21:43:09.866Z,96.56
2022-08-15T21:48:49.053Z,95.99
2022-08-15T21:54:21.653Z,97.44
2022-08-15T22:00:20.215Z,97.88
2022-08-15T22:05:55.177Z,98.84
2022-08-15T22:11:40.478Z,99.88
2022-08-15T22:17:02.330Z,99.27
2022-08-15T22:22:28.646Z,100.00
2022-08-15T22:27:54.039Z,99.74
2022-08-15T22:33:16.200Z,99.91
2022-08-15T22:38:38.943Z,99.57
2022-08-15T22:44:05.826Z,99.46
2022-08-15T22:49:40.419Z,100.00
2022-08-15T22:55:04.261Z,100.00
2022-08-15T23:00:34.447Z,100.00
2022-08-15T23:06:23.781Z,100.00
2022-08-15T23:11:50.039Z,100.00
2022-08-15T23:17:27.689Z,100.00
2022-08-15T23:22:51.468Z,100.00
2022-08-15T23:28:23.180Z,100.00
2022-08-15T23:33:57.901Z,100.00
2022-08-15T23:39:35.022Z,100.00
2022-08-15T23:44:59.147Z,100.00
2022-08-15T23:50:22.755Z,100.00
2022-08-15T23:55:59.411Z,100.00
